createdAt,value
2023-04-01T00:00:38.196Z,7.40
2023-04-01T00:02:41.807Z,6.50
2023-04-01T00:04:34.897Z,6.10
2023-04-01T00:06:29.014Z,6.50
2023-04-01T00:08:21.860Z,6.10
2023-04-01T00:10:15.007Z,5.90
2023-04-01T00:12:08.059Z,5.90
2023-04-01T00:14:01.005Z,5.80
2023-04-01T00:15:56.121Z,6.50
2023-04-01T00:17:49.402Z,6.30
2023-04-01T00:19:42.718Z,6.10
2023-04-01T00:21:36.179Z,5.80
2023-04-01T00:23:29.024Z,6.60
2023-04-01T00:25:22.082Z,5.90
2023-04-01T00:27:15.887Z,6.30
2023-04-01T00:29:09.302Z,6.10
2023-04-01T00:31:09.440Z,6.10
2023-04-01T00:33:02.406Z,6.00
2023-04-01T00:34:55.269Z,7.40
2023-04-01T00:36:48.165Z,9.70
2023-04-01T00:38:42.847Z,9.30
2023-04-01T00:40:39.603Z,8.00
2023-04-01T00:42:33.254Z,7.60
2023-04-01T00:44:33.152Z,8.60
2023-04-01T00:46:26.341Z,7.30
2023-04-01T00:48:24.372Z,8.10
2023-04-01T00:50:17.748Z,7.30
2023-04-01T00:52:15.201Z,7.00
2023-04-01T00:54:10.915Z,7.30
2023-04-01T00:56:27.966Z,6.70
2023-04-01T00:58:24.503Z,7.00
2023-04-01T01:00:18.535Z,7.10
2023-04-01T01:02:14.443Z,7.80
2023-04-01T01:04:07.917Z,11.10
2023-04-01T01:06:30.558Z,10.00
2023-04-01T01:08:41.014Z,9.90
2023-04-01T01:10:35.191Z,9.10
2023-04-01T01:12:56.043Z,8.30
2023-04-01T01:14:56.313Z,10.30
2023-04-01T01:17:03.293Z,13.10
2023-04-01T01:19:08.320Z,25.50
2023-04-01T01:21:28.920Z,53.50
2023-04-01T01:23:40.482Z,53.00
2023-04-01T01:25:48.622Z,40.00
2023-04-01T01:27:47.835Z,26.30
2023-04-01T01:29:53.617Z,16.90
2023-04-01T01:32:17.681Z,10.70
2023-04-01T01:34:29.596Z,9.70
2023-04-01T01:36:26.462Z,9.30
2023-04-01T01:38:30.475Z,8.70
2023-04-01T01:40:30.192Z,8.30
2023-04-01T01:42:25.478Z,8.80
2023-04-01T01:44:18.978Z,10.30
2023-04-01T01:46:17.258Z,10.60
2023-04-01T01:48:12.216Z,10.60
2023-04-01T01:50:07.361Z,10.10
2023-04-01T01:52:00.865Z,9.40
2023-04-01T01:53:53.915Z,9.50
2023-04-01T01:55:48.922Z,10.00
2023-04-01T01:57:45.753Z,9.80
2023-04-01T01:59:44.843Z,9.70
2023-04-01T02:01:47.946Z,9.30
2023-04-01T02:03:45.579Z,10.10
2023-04-01T02:05:38.958Z,12.30
2023-04-01T02:07:36.917Z,13.90
2023-04-01T02:09:30.994Z,13.40
2023-04-01T02:11:48.203Z,12.00
2023-04-01T02:13:54.981Z,11.70
2023-04-01T02:15:50.495Z,11.90
2023-04-01T02:17:48.977Z,11.00
2023-04-01T02:19:51.420Z,10.90
2023-04-01T02:21:45.515Z,11.80
2023-04-01T02:23:39.388Z,14.00
2023-04-01T02:25:36.510Z,13.20
2023-04-01T02:27:30.874Z,14.60
2023-04-01T02:29:28.597Z,16.00
2023-04-01T02:31:22.996Z,15.80
2023-04-01T02:33:16.507Z,14.40
2023-04-01T02:35:16.491Z,13.10
2023-04-01T02:37:09.682Z,13.00
2023-04-01T02:39:03.552Z,14.50
2023-04-01T02:41:02.017Z,14.30
2023-04-01T02:42:54.873Z,13.60
2023-04-01T02:44:47.915Z,13.40
2023-04-01T02:46:41.202Z,13.20
2023-04-01T02:48:34.044Z,12.40
2023-04-01T02:50:27.278Z,11.90
2023-04-01T02:52:20.125Z,12.30
2023-04-01T02:54:12.978Z,11.40
2023-04-01T02:56:06.225Z,11.20
2023-04-01T02:57:59.379Z,12.30
2023-04-01T02:59:52.540Z,11.70
2023-04-01T03:01:45.822Z,11.00
2023-04-01T03:03:38.967Z,12.10
2023-04-01T03:05:32.090Z,11.50
2023-04-01T03:07:25.297Z,11.80
2023-04-01T03:09:18.202Z,12.30
2023-04-01T03:11:12.070Z,11.80
2023-04-01T03:13:05.318Z,12.40
2023-04-01T03:14:58.167Z,12.00
2023-04-01T03:17:04.338Z,11.40
2023-04-01T03:19:00.044Z,11.70
2023-04-01T03:20:53.494Z,11.80
2023-04-01T03:22:46.959Z,12.50
2023-04-01T03:24:39.902Z,11.90
2023-04-01T03:26:33.156Z,11.60
2023-04-01T03:28:26.103Z,11.40
2023-04-01T03:30:19.308Z,11.90
2023-04-01T03:32:15.767Z,13.00
2023-04-01T03:34:10.066Z,12.20
2023-04-01T03:36:04.483Z,12.50
2023-04-01T03:37:57.317Z,12.00
2023-04-01T03:39:50.244Z,11.30
2023-04-01T03:41:43.087Z,11.50
2023-04-01T03:43:36.036Z,12.00
2023-04-01T03:45:28.986Z,12.00
2023-04-01T03:47:21.979Z,11.70
2023-04-01T03:49:14.777Z,10.70
2023-04-01T03:51:08.763Z,11.40
2023-04-01T03:53:01.699Z,10.80
2023-04-01T03:54:54.482Z,10.60
2023-04-01T03:56:48.032Z,10.70
2023-04-01T03:58:41.262Z,10.40
2023-04-01T04:00:35.130Z,9.50
2023-04-01T04:02:28.541Z,10.10
2023-04-01T04:04:21.799Z,11.10
2023-04-01T04:06:15.116Z,10.10
2023-04-01T04:08:08.158Z,10.70
2023-04-01T04:10:01.102Z,10.70
2023-04-01T04:11:54.059Z,9.90
2023-04-01T04:13:48.872Z,10.90
2023-04-01T04:15:41.817Z,9.80
2023-04-01T04:17:34.756Z,10.00
2023-04-01T04:19:27.686Z,10.00
2023-04-01T04:21:20.752Z,16.00
2023-04-01T04:23:13.687Z,11.50
2023-04-01T04:25:08.683Z,10.70
2023-04-01T04:27:02.044Z,10.70
2023-04-01T04:28:56.559Z,10.80
2023-04-01T04:30:49.584Z,10.10
2023-04-01T04:32:43.207Z,10.60
2023-04-01T04:34:37.114Z,10.50
2023-04-01T04:36:30.163Z,10.90
2023-04-01T04:38:23.370Z,10.60
2023-04-01T04:40:16.363Z,11.20
2023-04-01T04:42:09.208Z,11.40
2023-04-01T04:44:02.259Z,12.10
2023-04-01T04:45:55.936Z,12.30
2023-04-01T04:47:48.894Z,13.10
2023-04-01T04:49:41.725Z,13.90
2023-04-01T04:51:36.930Z,13.60
2023-04-01T04:53:30.069Z,14.00
2023-04-01T04:55:23.220Z,15.00
2023-04-01T04:57:24.603Z,21.50
2023-04-01T04:59:21.132Z,18.20
2023-04-01T05:01:19.762Z,15.40
2023-04-01T05:03:13.497Z,12.30
2023-04-01T05:05:07.119Z,11.40
2023-04-01T05:06:59.963Z,12.00
2023-04-01T05:08:52.909Z,11.80
2023-04-01T05:10:46.060Z,11.70
2023-04-01T05:12:39.959Z,12.40
2023-04-01T05:14:35.232Z,11.60
2023-04-01T05:16:33.756Z,12.10
2023-04-01T05:18:26.860Z,13.00
2023-04-01T05:20:20.431Z,13.60
2023-04-01T05:22:16.262Z,17.70
2023-04-01T05:24:11.049Z,22.30
2023-04-01T05:26:09.967Z,18.20
2023-04-01T05:28:02.868Z,13.40
2023-04-01T05:29:55.717Z,13.50
2023-04-01T05:32:11.703Z,14.20
2023-04-01T05:34:04.549Z,13.50
2023-04-01T05:36:06.153Z,12.10
2023-04-01T05:37:59.328Z,12.60
2023-04-01T05:39:52.712Z,12.40
2023-04-01T05:41:46.289Z,12.20
2023-04-01T05:43:41.043Z,11.10
2023-04-01T05:46:02.940Z,12.00
2023-04-01T05:48:14.884Z,11.90
2023-04-01T05:50:08.141Z,16.50
2023-04-01T05:52:00.999Z,16.50
2023-04-01T05:53:54.246Z,14.60
2023-04-01T05:55:47.503Z,13.00
2023-04-01T05:57:40.710Z,15.00
2023-04-01T05:59:34.108Z,18.00
2023-04-01T06:01:27.364Z,30.00
2023-04-01T06:03:20.486Z,16.80
2023-04-01T06:05:21.457Z,18.30
2023-04-01T06:07:19.007Z,11.90
2023-04-01T06:09:17.718Z,13.20
2023-04-01T06:11:56.823Z,14.50
2023-04-01T06:14:13.025Z,12.80
2023-04-01T06:16:36.345Z,15.50
2023-04-01T06:18:50.940Z,16.10
2023-04-01T06:21:18.242Z,16.00
2023-04-01T06:23:50.866Z,14.90
2023-04-01T06:26:21.290Z,12.30
2023-04-01T06:28:39.433Z,11.80
2023-04-01T06:30:51.943Z,12.80
2023-04-01T06:33:07.659Z,12.20
2023-04-01T06:35:17.468Z,10.60
2023-04-01T06:37:51.783Z,9.70
2023-04-01T06:40:06.457Z,11.10
2023-04-01T06:42:40.971Z,10.40
2023-04-01T06:44:59.919Z,9.90
2023-04-01T06:47:35.905Z,10.40
2023-04-01T06:50:05.893Z,7.90
2023-04-01T06:52:49.944Z,7.80
2023-04-01T06:55:39.031Z,8.50
2023-04-01T06:57:48.266Z,8.30
2023-04-01T06:59:42.123Z,7.50
2023-04-01T07:01:56.148Z,9.00
2023-04-01T07:03:56.912Z,8.10
2023-04-01T07:05:51.672Z,7.80
2023-04-01T07:07:49.840Z,8.40
2023-04-01T07:09:50.978Z,7.90
2023-04-01T07:12:15.656Z,8.20
2023-04-01T07:14:33.540Z,8.10
2023-04-01T07:16:39.227Z,8.60
2023-04-01T07:18:45.209Z,7.40
2023-04-01T07:20:39.346Z,8.10
2023-04-01T07:22:40.418Z,7.80
2023-04-01T07:24:53.953Z,7.70
2023-04-01T07:26:48.142Z,6.80
2023-04-01T07:28:44.352Z,6.30
2023-04-01T07:31:12.472Z,6.60
2023-04-01T07:33:25.842Z,7.30
2023-04-01T07:35:45.533Z,7.70
2023-04-01T07:38:07.042Z,7.50
2023-04-01T07:40:18.433Z,8.50
2023-04-01T07:42:30.724Z,13.10
2023-04-01T07:44:56.036Z,8.80
2023-04-01T07:46:56.231Z,7.40
2023-04-01T07:48:59.582Z,7.80
2023-04-01T07:50:59.315Z,8.40
2023-04-01T07:53:07.178Z,10.80
2023-04-01T07:55:05.512Z,12.70
2023-04-01T07:57:16.853Z,10.10
2023-04-01T07:59:32.645Z,8.90
2023-04-01T08:01:56.764Z,7.90
2023-04-01T08:03:58.769Z,9.30
2023-04-01T08:06:00.105Z,9.70
2023-04-01T08:08:18.145Z,10.50
2023-04-01T08:11:07.373Z,11.20
2023-04-01T08:13:39.949Z,7.40
2023-04-01T08:16:31.936Z,10.20
2023-04-01T08:18:47.968Z,10.80
2023-04-01T08:20:51.476Z,8.70
2023-04-01T08:22:52.205Z,7.80
2023-04-01T08:24:52.008Z,10.60
2023-04-01T08:26:56.170Z,19.90
2023-04-01T08:29:25.054Z,10.10
2023-04-01T08:31:34.073Z,9.80
2023-04-01T08:33:33.228Z,10.40
2023-04-01T08:35:40.058Z,15.20
2023-04-01T08:37:40.394Z,11.50
2023-04-01T08:39:47.418Z,8.20
2023-04-01T08:41:55.189Z,10.20
2023-04-01T08:44:33.551Z,11.80
2023-04-01T08:46:48.511Z,13.80
2023-04-01T08:49:03.023Z,13.70
2023-04-01T08:51:39.805Z,10.00
2023-04-01T08:53:41.393Z,12.10
2023-04-01T08:55:58.886Z,13.80
2023-04-01T08:58:24.178Z,12.80
2023-04-01T09:01:09.561Z,13.30
2023-04-01T09:03:20.788Z,14.30
2023-04-01T09:05:35.910Z,15.30
2023-04-01T09:07:46.465Z,21.70
2023-04-01T09:09:58.463Z,18.00
2023-04-01T09:12:12.940Z,16.90
2023-04-01T09:14:24.088Z,14.30
2023-04-01T09:17:00.971Z,16.10
2023-04-01T09:19:16.895Z,21.80
2023-04-01T09:22:14.925Z,12.70
2023-04-01T09:24:27.853Z,17.40
2023-04-01T09:26:38.098Z,28.00
2023-04-01T09:28:46.614Z,25.20
2023-04-01T09:31:10.611Z,38.70
2023-04-01T09:33:33.654Z,28.30
2023-04-01T09:35:47.627Z,67.50
2023-04-01T09:37:55.802Z,76.30
2023-04-01T09:40:18.689Z,35.20
2023-04-01T09:42:14.456Z,33.70
2023-04-01T09:44:35.461Z,29.60
2023-04-01T09:47:00.464Z,27.60
2023-04-01T09:49:17.986Z,22.50
2023-04-01T09:51:42.500Z,21.30
2023-04-01T09:53:51.195Z,19.80
2023-04-01T09:56:31.633Z,14.70
2023-04-01T09:58:54.280Z,14.60
2023-04-01T10:01:35.566Z,14.60
2023-04-01T10:04:01.906Z,15.00
2023-04-01T10:06:23.732Z,19.40
2023-04-01T10:08:58.976Z,16.80
2023-04-01T10:11:38.476Z,17.60
2023-04-01T10:14:21.636Z,15.90
2023-04-01T10:16:24.590Z,16.20
2023-04-01T10:18:33.748Z,15.70
2023-04-01T10:23:49.619Z,51.40
2023-04-01T10:26:04.008Z,29.20
2023-04-01T10:28:06.515Z,43.80
2023-04-01T10:31:07.261Z,36.90
2023-04-01T10:33:16.793Z,47.90
2023-04-01T10:35:54.086Z,43.30
2023-04-01T10:38:29.644Z,32.00
2023-04-01T10:41:01.088Z,33.80
2023-04-01T10:43:34.238Z,28.40
2023-04-01T10:45:47.054Z,21.40
2023-04-01T10:47:58.050Z,19.10
2023-04-01T10:50:24.088Z,18.60
2023-04-01T10:52:52.413Z,21.90
2023-04-01T10:55:11.969Z,38.30
2023-04-01T10:57:42.924Z,24.40
2023-04-01T11:00:18.992Z,21.80
2023-04-01T11:02:57.154Z,22.80
2023-04-01T11:05:27.253Z,24.80
2023-04-01T11:08:05.987Z,22.30
2023-04-01T11:10:25.829Z,20.70
2023-04-01T11:12:43.490Z,21.40
2023-04-01T11:14:48.875Z,21.40
2023-04-01T11:17:00.464Z,21.70
2023-04-01T11:19:34.469Z,28.80
2023-04-01T11:21:52.313Z,22.60
2023-04-01T11:24:06.666Z,23.90
2023-04-01T11:26:34.540Z,27.90
2023-04-01T11:29:04.372Z,51.30
2023-04-01T11:31:13.065Z,33.70
2023-04-01T11:33:12.583Z,34.10
2023-04-01T11:35:33.994Z,33.90
2023-04-01T11:37:56.570Z,48.10
2023-04-01T11:40:21.170Z,28.80
2023-04-01T11:42:55.563Z,30.70
2023-04-01T11:46:12.160Z,20.40
2023-04-01T11:48:33.011Z,18.50
2023-04-01T11:51:00.707Z,23.30
2023-04-01T11:53:12.233Z,18.40
2023-04-01T11:55:16.912Z,20.20
2023-04-01T11:57:41.188Z,20.10
2023-04-01T11:59:47.075Z,19.90
2023-04-01T12:01:58.786Z,17.80
2023-04-01T12:04:49.986Z,25.60
2023-04-01T12:06:56.812Z,20.40
2023-04-01T12:09:21.614Z,22.50
2023-04-01T12:11:29.916Z,27.90
2023-04-01T12:13:51.851Z,21.90
2023-04-01T12:15:59.666Z,22.50
2023-04-01T12:18:07.164Z,21.10
2023-04-01T12:20:31.458Z,19.00
2023-04-01T12:22:47.604Z,16.70
2023-04-01T12:24:57.048Z,15.00
2023-04-01T12:27:18.422Z,16.80
2023-04-01T12:29:27.049Z,17.10
2023-04-01T12:31:36.626Z,20.90
2023-04-01T12:33:47.233Z,18.80
2023-04-01T12:36:14.307Z,22.50
2023-04-01T12:38:29.288Z,18.60
2023-04-01T12:40:52.957Z,17.60
2023-04-01T12:43:31.878Z,19.00
2023-04-01T12:45:34.710Z,17.30
2023-04-01T12:47:50.396Z,15.30
2023-04-01T12:50:27.945Z,12.40
2023-04-01T12:52:35.529Z,14.90
2023-04-01T12:54:49.777Z,15.60
2023-04-01T12:57:11.015Z,15.50
2023-04-01T12:59:43.887Z,20.70
2023-04-01T13:01:42.872Z,23.30
2023-04-01T13:03:47.810Z,15.90
2023-04-01T13:06:03.570Z,15.10
2023-04-01T13:08:05.323Z,15.80
2023-04-01T13:10:12.924Z,15.00
2023-04-01T13:12:21.247Z,20.50
2023-04-01T13:16:35.692Z,28.60
2023-04-01T13:18:54.032Z,66.30
2023-04-01T13:23:13.519Z,46.60
2023-04-01T13:25:36.603Z,61.60
2023-04-01T13:27:45.184Z,33.50
2023-04-01T13:29:44.970Z,23.20
2023-04-01T13:31:52.073Z,24.70
2023-04-01T13:34:09.705Z,22.10
2023-04-01T13:36:23.950Z,24.80
2023-04-01T13:39:03.589Z,28.30
2023-04-01T13:41:26.644Z,25.50
2023-04-01T13:43:34.034Z,24.50
2023-04-01T13:46:01.626Z,25.50
2023-04-01T13:48:27.101Z,26.90
2023-04-01T13:50:36.080Z,24.30
2023-04-01T13:52:38.289Z,36.60
2023-04-01T13:54:50.407Z,26.60
2023-04-01T13:57:08.447Z,108.30
2023-04-01T13:59:21.881Z,24.70
2023-04-01T14:01:56.403Z,22.10
2023-04-01T14:04:05.849Z,18.10
2023-04-01T14:06:19.235Z,22.80
2023-04-01T14:08:27.546Z,15.40
2023-04-01T14:12:43.756Z,13.30
2023-04-01T14:14:53.146Z,14.60
2023-04-01T14:17:04.364Z,22.10
2023-04-01T14:19:26.653Z,27.80
2023-04-01T14:21:59.844Z,23.60
2023-04-01T14:24:21.314Z,18.00
2023-04-01T14:26:44.059Z,13.70
2023-04-01T14:29:14.275Z,15.40
2023-04-01T14:31:19.915Z,17.70
2023-04-01T14:33:38.822Z,17.20
2023-04-01T14:35:43.109Z,15.20
2023-04-01T14:37:56.121Z,16.40
2023-04-01T14:40:16.011Z,13.40
2023-04-01T14:42:24.617Z,16.20
2023-04-01T14:44:39.475Z,13.00
2023-04-01T14:46:35.490Z,16.00
2023-04-01T14:48:52.809Z,15.60
2023-04-01T14:50:48.937Z,15.00
2023-04-01T14:52:50.655Z,15.10
2023-04-01T14:54:47.935Z,16.20
2023-04-01T14:56:48.693Z,16.80
2023-04-01T14:58:45.916Z,18.30
2023-04-01T15:01:07.911Z,24.10
2023-04-01T15:03:15.638Z,18.50
2023-04-01T15:05:51.496Z,18.70
2023-04-01T15:08:29.637Z,37.70
2023-04-01T15:10:43.337Z,35.50
2023-04-01T15:12:45.913Z,77.80
2023-04-01T15:15:06.505Z,33.30
2023-04-01T15:17:17.992Z,34.80
2023-04-01T15:19:31.332Z,38.80
2023-04-01T15:21:32.166Z,32.10
2023-04-01T15:23:52.855Z,33.80
2023-04-01T15:26:26.556Z,56.00
2023-04-01T15:28:37.215Z,41.70
2023-04-01T15:30:52.515Z,27.50
2023-04-01T15:33:04.612Z,25.70
2023-04-01T15:35:15.991Z,31.60
2023-04-01T15:37:29.659Z,23.80
2023-04-01T15:39:42.520Z,76.70
2023-04-01T15:42:02.091Z,21.30
2023-04-01T15:43:54.945Z,16.80
2023-04-01T15:46:11.672Z,18.90
2023-04-01T15:48:27.235Z,18.90
2023-04-01T15:50:32.308Z,17.00
2023-04-01T15:52:42.298Z,17.90
2023-04-01T15:55:02.938Z,21.70
2023-04-01T15:57:15.673Z,19.30
2023-04-01T15:59:19.612Z,24.70
2023-04-01T16:01:37.474Z,23.80
2023-04-01T16:03:33.528Z,49.30
2023-04-01T16:05:38.508Z,35.90
2023-04-01T16:07:56.152Z,63.20
2023-04-01T16:09:52.138Z,22.30
2023-04-01T16:12:03.111Z,23.30
2023-04-01T16:14:34.765Z,18.50
2023-04-01T16:16:36.703Z,15.70
2023-04-01T16:18:56.003Z,13.30
2023-04-01T16:20:58.861Z,13.20
2023-04-01T16:23:01.152Z,18.20
2023-04-01T16:24:57.158Z,16.50
2023-04-01T16:27:01.718Z,40.60
2023-04-01T16:29:08.058Z,61.60
2023-04-01T16:31:16.605Z,60.20
2023-04-01T16:33:35.417Z,50.30
2023-04-01T16:35:59.243Z,43.10
2023-04-01T16:38:05.030Z,43.30
2023-04-01T16:40:14.445Z,28.90
2023-04-01T16:42:07.171Z,42.00
2023-04-01T16:44:14.702Z,72.90
2023-04-01T16:46:15.810Z,53.60
2023-04-01T16:48:13.619Z,42.40
2023-04-01T16:50:40.759Z,27.50
2023-04-01T16:52:54.683Z,27.10
2023-04-01T16:55:02.277Z,34.10
2023-04-01T16:57:11.841Z,23.60
2023-04-01T16:59:07.843Z,22.50
2023-04-01T17:01:25.828Z,28.90
2023-04-01T17:03:27.841Z,30.10
2023-04-01T17:05:37.029Z,32.20
2023-04-01T17:07:46.724Z,34.60
2023-04-01T17:09:58.505Z,26.40
2023-04-01T17:12:17.964Z,38.10
2023-04-01T17:14:45.530Z,32.90
2023-04-01T17:17:23.018Z,22.60
2023-04-01T17:19:46.375Z,18.10
2023-04-01T17:21:53.945Z,24.80
2023-04-01T17:24:10.882Z,18.80
2023-04-01T17:26:22.923Z,17.50
2023-04-01T17:28:48.261Z,16.90
2023-04-01T17:31:09.439Z,17.50
2023-04-01T17:33:21.627Z,17.00
2023-04-01T17:35:34.127Z,21.80
2023-04-01T17:37:41.486Z,26.30
2023-04-01T17:39:58.609Z,23.30
2023-04-01T17:42:01.810Z,16.30
2023-04-01T17:44:34.598Z,16.70
2023-04-01T17:46:45.910Z,19.60
2023-04-01T17:49:01.776Z,16.20
2023-04-01T17:51:44.033Z,16.50
2023-04-01T17:53:54.640Z,14.20
2023-04-01T17:55:58.000Z,18.70
2023-04-01T17:58:11.752Z,16.50
2023-04-01T18:00:18.825Z,15.60
2023-04-01T18:02:34.813Z,18.60
2023-04-01T18:04:48.238Z,17.90
2023-04-01T18:06:57.798Z,14.90
2023-04-01T18:09:17.027Z,15.10
2023-04-01T18:11:53.764Z,13.80
2023-04-01T18:13:52.759Z,21.00
2023-04-01T18:16:03.752Z,16.70
2023-04-01T18:18:17.603Z,24.30
2023-04-01T18:20:35.321Z,20.60
2023-04-01T18:22:58.902Z,18.70
2023-04-01T18:25:08.239Z,28.50
2023-04-01T18:27:22.325Z,20.90
2023-04-01T18:29:20.251Z,14.20
2023-04-01T18:33:30.202Z,14.00
2023-04-01T18:35:41.862Z,15.80
2023-04-01T18:37:40.615Z,15.40
2023-04-01T18:39:39.581Z,15.90
2023-04-01T18:41:56.368Z,21.00
2023-04-01T18:44:11.942Z,25.10
2023-04-01T18:46:17.984Z,22.30
2023-04-01T18:48:32.279Z,13.90
2023-04-01T18:50:42.051Z,17.40
2023-04-01T18:52:38.906Z,19.30
2023-04-01T18:54:41.606Z,12.60
2023-04-01T18:56:44.281Z,12.40
2023-04-01T18:58:54.263Z,12.10
2023-04-01T19:01:29.311Z,14.40
2023-04-01T19:03:29.826Z,21.90
2023-04-01T19:05:35.285Z,27.40
2023-04-01T19:07:38.065Z,20.70
2023-04-01T19:09:54.090Z,24.30
2023-04-01T19:12:15.411Z,25.60
2023-04-01T19:14:26.040Z,23.00
2023-04-01T19:16:33.577Z,32.40
2023-04-01T19:18:33.184Z,25.40
2023-04-01T19:20:39.365Z,15.00
2023-04-01T19:23:09.894Z,12.90
2023-04-01T19:25:21.976Z,13.80
2023-04-01T19:27:37.618Z,11.60
2023-04-01T19:29:51.966Z,12.50
2023-04-01T19:32:09.623Z,14.10
2023-04-01T19:34:16.364Z,11.10
2023-04-01T19:36:16.101Z,13.60
2023-04-01T19:38:37.539Z,13.20
2023-04-01T19:40:46.916Z,15.30
2023-04-01T19:43:08.255Z,13.40
2023-04-01T19:45:20.715Z,16.20
2023-04-01T19:47:41.759Z,12.60
2023-04-01T19:49:44.950Z,11.70
2023-04-01T19:51:42.731Z,12.20
2023-04-01T19:53:45.526Z,14.00
2023-04-01T19:55:53.493Z,13.00
2023-04-01T19:57:56.079Z,11.60
2023-04-01T20:00:17.390Z,9.20
2023-04-01T20:02:16.714Z,9.40
2023-04-01T20:04:15.263Z,10.20
2023-04-01T20:06:09.811Z,18.30
2023-04-01T20:08:29.021Z,18.00
2023-04-01T20:10:41.537Z,29.10
2023-04-01T20:12:49.366Z,13.20
2023-04-01T20:14:52.414Z,13.30
2023-04-01T20:17:03.884Z,12.60
2023-04-01T20:19:00.922Z,13.70
2023-04-01T20:20:57.457Z,16.40
2023-04-01T20:23:12.214Z,25.20
2023-04-01T20:25:22.673Z,40.90
2023-04-01T20:27:15.805Z,22.50
2023-04-01T20:29:28.931Z,30.50
2023-04-01T20:31:27.267Z,16.40
2023-04-01T20:33:45.421Z,14.60
2023-04-01T20:35:49.095Z,16.40
2023-04-01T20:37:56.146Z,12.70
2023-04-01T20:40:27.615Z,20.10
2023-04-01T20:42:55.053Z,15.50
2023-04-01T20:45:09.498Z,15.60
2023-04-01T20:47:18.528Z,16.10
2023-04-01T20:49:48.474Z,14.30
2023-04-01T20:51:52.555Z,13.60
2023-04-01T20:53:59.582Z,13.60
2023-04-01T20:56:17.476Z,16.70
2023-04-01T20:58:30.694Z,14.90
2023-04-01T21:00:54.902Z,13.70
2023-04-01T21:03:03.955Z,13.80
2023-04-01T21:05:08.727Z,13.50
2023-04-01T21:07:11.706Z,12.90
2023-04-01T21:09:31.374Z,14.60
2023-04-01T21:11:32.637Z,12.80
2023-04-01T21:13:42.165Z,12.80
2023-04-01T21:16:05.514Z,15.60
2023-04-01T21:18:39.996Z,16.60
2023-04-01T21:20:54.301Z,13.60
2023-04-01T21:23:04.339Z,14.50
2023-04-01T21:25:23.191Z,13.70
2023-04-01T21:27:27.816Z,15.00
2023-04-01T21:29:57.977Z,13.40
2023-04-01T21:32:27.805Z,13.90
2023-04-01T21:34:41.380Z,16.50
2023-04-01T21:37:10.166Z,15.30
2023-04-01T21:39:52.371Z,15.70
2023-04-01T21:42:02.783Z,15.20
2023-04-01T21:44:11.236Z,14.80
2023-04-01T21:46:35.659Z,15.30
2023-04-01T21:48:37.893Z,15.40
2023-04-01T21:51:08.318Z,18.70
2023-04-01T21:53:22.059Z,15.70
2023-04-01T21:55:36.878Z,13.50
2023-04-01T21:57:39.114Z,14.70
2023-04-01T22:00:01.322Z,14.10
2023-04-01T22:02:18.478Z,14.40
2023-04-01T22:04:33.195Z,16.80
2023-04-01T22:06:32.077Z,17.80
2023-04-01T22:08:53.386Z,16.40
2023-04-01T22:11:00.190Z,15.40
2023-04-01T22:13:18.195Z,16.00
2023-04-01T22:15:51.680Z,19.30
2023-04-01T22:17:56.247Z,17.80
2023-04-01T22:20:30.335Z,17.20
2023-04-01T22:22:26.862Z,20.40
2023-04-01T22:24:30.766Z,16.70
2023-04-01T22:26:39.888Z,13.60
2023-04-01T22:28:41.715Z,13.20
2023-04-01T22:30:42.627Z,13.80
2023-04-01T22:32:48.070Z,16.20
2023-04-01T22:34:57.055Z,12.70
2023-04-01T22:37:07.095Z,15.70
2023-04-01T22:39:13.254Z,17.70
2023-04-01T22:41:24.690Z,13.80
2023-04-01T22:43:28.744Z,11.10
2023-04-01T22:45:41.926Z,12.00
2023-04-01T22:48:02.676Z,13.20
2023-04-01T22:50:17.142Z,12.80
2023-04-01T22:52:32.285Z,26.60
2023-04-01T22:54:41.699Z,16.80
2023-04-01T22:56:40.765Z,13.80
2023-04-01T22:58:51.615Z,13.50
2023-04-01T23:00:48.265Z,12.30
2023-04-01T23:02:46.569Z,11.50
2023-04-01T23:06:42.369Z,26.10
2023-04-01T23:09:05.163Z,15.20
2023-04-01T23:11:03.684Z,11.40
2023-04-01T23:12:59.972Z,14.90
2023-04-01T23:14:59.181Z,9.90
2023-04-01T23:16:55.596Z,9.50
2023-04-01T23:19:13.530Z,10.60
2023-04-01T23:21:12.214Z,13.60
2023-04-01T23:23:33.016Z,18.10
2023-04-01T23:25:43.579Z,80.70
2023-04-01T23:28:03.968Z,80.20
2023-04-01T23:29:56.814Z,33.20
2023-04-01T23:31:59.510Z,14.60
2023-04-01T23:33:57.205Z,17.10
2023-04-01T23:35:57.631Z,13.20
2023-04-01T23:37:50.785Z,9.60
2023-04-01T23:39:49.513Z,11.20
2023-04-01T23:41:42.353Z,9.40
2023-04-01T23:43:41.957Z,10.30
2023-04-01T23:45:35.106Z,8.90
2023-04-01T23:47:34.725Z,8.40
2023-04-01T23:49:49.076Z,8.90
2023-04-01T23:51:53.780Z,8.50
2023-04-01T23:53:48.569Z,8.60
2023-04-01T23:55:43.081Z,9.20
2023-04-01T23:57:37.880Z,8.20
2023-04-01T23:59:34.142Z,9.20
